CAP964 SAVD-SAVC
Flight info
| Callsign | CAP964 |
|---|---|
| Flight time | 1h 17m |
| Altitude | 3500 |
| Route | 4253S07106W DCT 4457S06828W 4506S06816W 4508S06751W 4522S06732W 4528S06723W 4534S06715W DCT 4539S06707W |
| Aircraft | B350/L-SBGRW/S |
Departure
| Time | 2026-04-21 12:31 |
|---|---|
| Airport | El Maitén Airport (SAVD) |
Arrival
| Time | 2026-04-21 13:48 |
|---|---|
| Airport | General Enrique Mosconi International Airport (SAVC) |
| Time | Latitude | Longitude | Altitude | Speed | Heading |
|---|---|---|---|---|---|
| 2026-04-21 12:21 | -42.03327 | -71.16927 | 2404 ft | 0 kts | 327° |
| 2026-04-21 12:26 | -42.03326 | -71.16928 | 2399 ft | 0 kts | 326° |
| 2026-04-21 12:26 | -42.03324 | -71.16929 | 2399 ft | 0 kts | 334° |
| 2026-04-21 12:27 | -42.03322 | -71.16929 | 2402 ft | 0 kts | 336° |
| 2026-04-21 12:27 | -42.03319 | -71.16930 | 2402 ft | 0 kts | 328° |
| 2026-04-21 12:27 | -42.03333 | -71.16930 | 2401 ft | 13 kts | 143° |
| 2026-04-21 12:27 | -42.03346 | -71.16837 | 2399 ft | 7 kts | 47° |
| 2026-04-21 12:28 | -42.03340 | -71.16830 | 2400 ft | 0 kts | 26° |
| 2026-04-21 12:28 | -42.03337 | -71.16829 | 2399 ft | 1 kts | 354° |
| 2026-04-21 12:28 | -42.03334 | -71.16828 | 2399 ft | 0 kts | 19° |
| 2026-04-21 12:28 | -42.03333 | -71.16827 | 2399 ft | 0 kts | 10° |
| 2026-04-21 12:29 | -42.03291 | -71.16802 | 2394 ft | 32 kts | 22° |
| 2026-04-21 12:29 | -42.02876 | -71.16583 | 2401 ft | 89 kts | 17° |
| 2026-04-21 12:29 | -42.02209 | -71.16218 | 2422 ft | 120 kts | 20° |
| 2026-04-21 12:29 | -42.01360 | -71.15898 | 2577 ft | 132 kts | 7° |
| 2026-04-21 12:30 | -42.00415 | -71.15982 | 2574 ft | 151 kts | 341° |
| 2026-04-21 12:30 | -41.99511 | -71.16738 | 2442 ft | 149 kts | 313° |
| 2026-04-21 12:30 | -41.98799 | -71.17792 | 2489 ft | 150 kts | 312° |
| 2026-04-21 12:30 | -41.98157 | -71.18796 | 2795 ft | 150 kts | 308° |
| 2026-04-21 12:31 | -41.97623 | -71.20024 | 2990 ft | 150 kts | 283° |
| 2026-04-21 12:31 | -41.97902 | -71.21314 | 3228 ft | 180 kts | 228° |
| 2026-04-21 12:31 | -41.99121 | -71.21974 | 3486 ft | 208 kts | 179° |
| 2026-04-21 12:31 | -42.00515 | -71.21261 | 3788 ft | 225 kts | 148° |
| 2026-04-21 12:32 | -42.01854 | -71.20118 | 4097 ft | 237 kts | 148° |
| 2026-04-21 12:32 | -42.03282 | -71.18986 | 4490 ft | 240 kts | 157° |
| 2026-04-21 12:32 | -42.04862 | -71.18190 | 4787 ft | 246 kts | 164° |
| 2026-04-21 12:32 | -42.06539 | -71.17577 | 4910 ft | 255 kts | 169° |
| 2026-04-21 12:33 | -42.07966 | -71.17183 | 4949 ft | 261 kts | 171° |
| 2026-04-21 12:33 | -42.09775 | -71.16779 | 4974 ft | 266 kts | 173° |
| 2026-04-21 12:33 | -42.11561 | -71.16414 | 4993 ft | 252 kts | 174° |
| 2026-04-21 12:33 | -42.13282 | -71.16178 | 4992 ft | 247 kts | 178° |
| 2026-04-21 12:34 | -42.14986 | -71.16020 | 4996 ft | 245 kts | 178° |
| 2026-04-21 12:34 | -42.16661 | -71.15898 | 4990 ft | 244 kts | 179° |
| 2026-04-21 12:34 | -42.18372 | -71.15796 | 4842 ft | 248 kts | 179° |
| 2026-04-21 12:34 | -42.20100 | -71.15706 | 4712 ft | 250 kts | 179° |
| 2026-04-21 12:35 | -42.21837 | -71.15550 | 4591 ft | 250 kts | 178° |
| 2026-04-21 12:35 | -42.23560 | -71.15380 | 4543 ft | 247 kts | 178° |
| 2026-04-21 12:35 | -42.25266 | -71.15225 | 4507 ft | 244 kts | 178° |
| 2026-04-21 12:35 | -42.26959 | -71.15084 | 4515 ft | 243 kts | 179° |
| 2026-04-21 12:36 | -42.28639 | -71.14963 | 4502 ft | 242 kts | 179° |
| 2026-04-21 12:36 | -42.30291 | -71.14827 | 4502 ft | 240 kts | 178° |
| 2026-04-21 12:36 | -42.31958 | -71.14691 | 4496 ft | 240 kts | 179° |
| 2026-04-21 12:36 | -42.33621 | -71.14555 | 4497 ft | 239 kts | 179° |
| 2026-04-21 12:37 | -42.35282 | -71.14422 | 4500 ft | 239 kts | 179° |
| 2026-04-21 12:37 | -42.36943 | -71.14284 | 4496 ft | 239 kts | 178° |
| 2026-04-21 12:37 | -42.38601 | -71.14138 | 4505 ft | 239 kts | 178° |
| 2026-04-21 12:37 | -42.40031 | -71.14013 | 4620 ft | 163 kts | 181° |
| 2026-04-21 12:38 | -42.41085 | -71.13779 | 4891 ft | 172 kts | 169° |
| 2026-04-21 12:38 | -42.42409 | -71.13640 | 4649 ft | 206 kts | 181° |
| 2026-04-21 12:38 | -42.43868 | -71.13623 | 4706 ft | 215 kts | 182° |
| 2026-04-21 12:38 | -42.45365 | -71.13588 | 4943 ft | 215 kts | 181° |
| 2026-04-21 12:39 | -42.46858 | -71.13501 | 5186 ft | 215 kts | 179° |
| 2026-04-21 12:39 | -42.48362 | -71.13367 | 5368 ft | 219 kts | 179° |
| 2026-04-21 12:39 | -42.49906 | -71.13224 | 5436 ft | 226 kts | 179° |
| 2026-04-21 12:39 | -42.51490 | -71.13085 | 5455 ft | 230 kts | 179° |
| 2026-04-21 12:40 | -42.52902 | -71.12963 | 5467 ft | 233 kts | 179° |
| 2026-04-21 12:40 | -42.54078 | -71.12860 | 5477 ft | 235 kts | 179° |
| 2026-04-21 12:40 | -42.55689 | -71.12729 | 5483 ft | 236 kts | 180° |
| 2026-04-21 12:40 | -42.57331 | -71.12589 | 5476 ft | 237 kts | 180° |
| 2026-04-21 12:41 | -42.58974 | -71.12460 | 5486 ft | 237 kts | 180° |
| 2026-04-21 12:41 | -42.60625 | -71.12334 | 5487 ft | 238 kts | 180° |
| 2026-04-21 12:41 | -42.62280 | -71.12187 | 5486 ft | 239 kts | 179° |
| 2026-04-21 12:41 | -42.63941 | -71.12032 | 5472 ft | 239 kts | 179° |
| 2026-04-21 12:42 | -42.65602 | -71.11891 | 5460 ft | 239 kts | 180° |
| 2026-04-21 12:42 | -42.67261 | -71.11762 | 5454 ft | 239 kts | 180° |
| 2026-04-21 12:42 | -42.68916 | -71.11620 | 5451 ft | 238 kts | 179° |
| 2026-04-21 12:42 | -42.70577 | -71.11467 | 5468 ft | 240 kts | 180° |
| 2026-04-21 12:43 | -42.72222 | -71.11345 | 5449 ft | 240 kts | 181° |
| 2026-04-21 12:43 | -42.73889 | -71.11234 | 5452 ft | 240 kts | 180° |
| 2026-04-21 12:43 | -42.75555 | -71.11095 | 5450 ft | 240 kts | 179° |
| 2026-04-21 12:43 | -42.77221 | -71.10936 | 5456 ft | 241 kts | 179° |
| 2026-04-21 12:44 | -42.78894 | -71.10770 | 5446 ft | 241 kts | 180° |
| 2026-04-21 12:44 | -42.80566 | -71.10646 | 5447 ft | 241 kts | 180° |
| 2026-04-21 12:44 | -42.82241 | -71.10517 | 5447 ft | 241 kts | 180° |
| 2026-04-21 12:44 | -42.83893 | -71.10384 | 5446 ft | 241 kts | 180° |
| 2026-04-21 12:45 | -42.85569 | -71.10241 | 5454 ft | 242 kts | 180° |
| 2026-04-21 12:45 | -42.87201 | -71.09676 | 5443 ft | 247 kts | 155° |
| 2026-04-21 12:45 | -42.88692 | -71.08490 | 5442 ft | 249 kts | 150° |
| 2026-04-21 12:45 | -42.90127 | -71.07193 | 5444 ft | 249 kts | 148° |
| 2026-04-21 12:46 | -42.91547 | -71.05825 | 5455 ft | 250 kts | 147° |
| 2026-04-21 12:46 | -42.92953 | -71.04424 | 5449 ft | 251 kts | 144° |
| 2026-04-21 12:46 | -42.94294 | -71.02887 | 5445 ft | 252 kts | 140° |
| 2026-04-21 12:46 | -42.95586 | -71.01262 | 5446 ft | 253 kts | 139° |
| 2026-04-21 12:47 | -42.96855 | -70.99653 | 5450 ft | 253 kts | 140° |
| 2026-04-21 12:47 | -42.98154 | -70.98032 | 5473 ft | 253 kts | 140° |
| 2026-04-21 12:47 | -42.99190 | -70.96755 | 5475 ft | 254 kts | 141° |
| 2026-04-21 12:47 | -43.00517 | -70.95158 | 5478 ft | 254 kts | 141° |
| 2026-04-21 12:48 | -43.01843 | -70.93570 | 5488 ft | 253 kts | 141° |
| 2026-04-21 12:48 | -43.03155 | -70.91965 | 5486 ft | 252 kts | 141° |
| 2026-04-21 12:48 | -43.04376 | -70.90278 | 5490 ft | 253 kts | 125° |
| 2026-04-21 12:48 | -43.05080 | -70.88227 | 5520 ft | 254 kts | 114° |
| 2026-04-21 12:49 | -43.05849 | -70.86056 | 5521 ft | 255 kts | 119° |
| 2026-04-21 12:49 | -43.06691 | -70.83921 | 5527 ft | 255 kts | 120° |
| 2026-04-21 12:49 | -43.07554 | -70.81793 | 5533 ft | 256 kts | 123° |
| 2026-04-21 12:49 | -43.08509 | -70.79738 | 5537 ft | 257 kts | 125° |
| 2026-04-21 12:50 | -43.09490 | -70.77693 | 5535 ft | 258 kts | 126° |
| 2026-04-21 12:50 | -43.10579 | -70.75742 | 5528 ft | 259 kts | 132° |
| 2026-04-21 12:50 | -43.11727 | -70.73880 | 5500 ft | 259 kts | 133° |
| 2026-04-21 12:50 | -43.12967 | -70.72119 | 5498 ft | 255 kts | 140° |
| 2026-04-21 12:51 | -43.14324 | -70.70576 | 5509 ft | 252 kts | 152° |
| 2026-04-21 12:51 | -43.15943 | -70.69842 | 5511 ft | 244 kts | 172° |
| 2026-04-21 12:51 | -43.17604 | -70.69359 | 5515 ft | 244 kts | 172° |
| 2026-04-21 12:51 | -43.19264 | -70.68878 | 5516 ft | 244 kts | 171° |
| 2026-04-21 12:52 | -43.20877 | -70.68083 | 5515 ft | 249 kts | 158° |
| 2026-04-21 12:52 | -43.22404 | -70.66953 | 5515 ft | 251 kts | 152° |
| 2026-04-21 12:52 | -43.23860 | -70.65684 | 5444 ft | 251 kts | 149° |
| 2026-04-21 12:52 | -43.25288 | -70.64326 | 5469 ft | 250 kts | 147° |
| 2026-04-21 12:53 | -43.26692 | -70.62909 | 5495 ft | 251 kts | 146° |
| 2026-04-21 12:53 | -43.28070 | -70.61424 | 5496 ft | 253 kts | 143° |
| 2026-04-21 12:53 | -43.29387 | -70.59821 | 5501 ft | 254 kts | 140° |
| 2026-04-21 12:53 | -43.30677 | -70.58159 | 5494 ft | 255 kts | 139° |
| 2026-04-21 12:54 | -43.31972 | -70.56502 | 5492 ft | 254 kts | 140° |
| 2026-04-21 12:54 | -43.33278 | -70.54860 | 5493 ft | 254 kts | 140° |
| 2026-04-21 12:54 | -43.34591 | -70.53236 | 5501 ft | 254 kts | 141° |
| 2026-04-21 12:54 | -43.35917 | -70.51618 | 5503 ft | 255 kts | 141° |
| 2026-04-21 12:55 | -43.37241 | -70.49993 | 5500 ft | 255 kts | 141° |
| 2026-04-21 12:55 | -43.38542 | -70.48378 | 5498 ft | 256 kts | 141° |
| 2026-04-21 12:55 | -43.39859 | -70.46735 | 5496 ft | 256 kts | 141° |
| 2026-04-21 12:55 | -43.41180 | -70.45096 | 5498 ft | 256 kts | 141° |
| 2026-04-21 12:56 | -43.42499 | -70.43445 | 5493 ft | 256 kts | 140° |
| 2026-04-21 12:56 | -43.43823 | -70.41796 | 5495 ft | 257 kts | 141° |
| 2026-04-21 12:56 | -43.45152 | -70.40158 | 5499 ft | 257 kts | 141° |
| 2026-04-21 12:56 | -43.46483 | -70.38500 | 5497 ft | 258 kts | 140° |
| 2026-04-21 12:57 | -43.47809 | -70.36837 | 5484 ft | 258 kts | 140° |
| 2026-04-21 12:57 | -43.49122 | -70.35209 | 5483 ft | 256 kts | 141° |
| 2026-04-21 12:57 | -43.50441 | -70.33558 | 5482 ft | 256 kts | 140° |
| 2026-04-21 12:57 | -43.51758 | -70.31902 | 5486 ft | 256 kts | 141° |
| 2026-04-21 12:58 | -43.53081 | -70.30255 | 5489 ft | 256 kts | 141° |
| 2026-04-21 12:58 | -43.54401 | -70.28607 | 5486 ft | 256 kts | 141° |
| 2026-04-21 12:58 | -43.55725 | -70.26964 | 5497 ft | 257 kts | 141° |
| 2026-04-21 12:58 | -43.57047 | -70.25303 | 5486 ft | 258 kts | 141° |
| 2026-04-21 12:59 | -43.58370 | -70.23637 | 5486 ft | 257 kts | 141° |
| 2026-04-21 12:59 | -43.59694 | -70.21972 | 5479 ft | 258 kts | 141° |
| 2026-04-21 12:59 | -43.61002 | -70.20331 | 5487 ft | 258 kts | 141° |
| 2026-04-21 12:59 | -43.62334 | -70.18661 | 5487 ft | 259 kts | 141° |
| 2026-04-21 13:00 | -43.63672 | -70.16989 | 5475 ft | 259 kts | 141° |
| 2026-04-21 13:00 | -43.65007 | -70.15317 | 5482 ft | 259 kts | 141° |
| 2026-04-21 13:00 | -43.66338 | -70.13638 | 5482 ft | 259 kts | 141° |
| 2026-04-21 13:00 | -43.67672 | -70.11960 | 5489 ft | 260 kts | 141° |
| 2026-04-21 13:01 | -43.69015 | -70.10278 | 5486 ft | 261 kts | 141° |
| 2026-04-21 13:01 | -43.70355 | -70.08585 | 5469 ft | 261 kts | 141° |
| 2026-04-21 13:01 | -43.71671 | -70.06915 | 5465 ft | 260 kts | 141° |
| 2026-04-21 13:01 | -43.73003 | -70.05230 | 5458 ft | 259 kts | 141° |
| 2026-04-21 13:02 | -43.74331 | -70.03551 | 5472 ft | 258 kts | 141° |
| 2026-04-21 13:02 | -43.75660 | -70.01878 | 5466 ft | 258 kts | 141° |
| 2026-04-21 13:02 | -43.78313 | -69.98528 | 5470 ft | 258 kts | 141° |
| 2026-04-21 13:03 | -43.79639 | -69.96851 | 5460 ft | 258 kts | 141° |
| 2026-04-21 13:03 | -43.80962 | -69.95175 | 5468 ft | 257 kts | 142° |
| 2026-04-21 13:03 | -43.82295 | -69.93508 | 5468 ft | 259 kts | 141° |
| 2026-04-21 13:03 | -43.83600 | -69.91839 | 5471 ft | 259 kts | 141° |
| 2026-04-21 13:04 | -43.84927 | -69.90143 | 5461 ft | 260 kts | 141° |
| 2026-04-21 13:04 | -43.86259 | -69.88448 | 5464 ft | 259 kts | 142° |
| 2026-04-21 13:04 | -43.87593 | -69.86763 | 5457 ft | 260 kts | 141° |
| 2026-04-21 13:04 | -43.88927 | -69.85075 | 5462 ft | 259 kts | 142° |
| 2026-04-21 13:05 | -43.90253 | -69.83392 | 5460 ft | 258 kts | 141° |
| 2026-04-21 13:05 | -43.91581 | -69.81704 | 5445 ft | 261 kts | 141° |
| 2026-04-21 13:05 | -43.92905 | -69.80003 | 5444 ft | 265 kts | 141° |
| 2026-04-21 13:05 | -43.94261 | -69.78263 | 5457 ft | 266 kts | 142° |
| 2026-04-21 13:06 | -43.95636 | -69.76522 | 5475 ft | 269 kts | 141° |
| 2026-04-21 13:06 | -43.97020 | -69.74755 | 5460 ft | 271 kts | 141° |
| 2026-04-21 13:06 | -43.98415 | -69.72992 | 5464 ft | 272 kts | 142° |
| 2026-04-21 13:06 | -43.99812 | -69.71204 | 5457 ft | 274 kts | 141° |
| 2026-04-21 13:07 | -44.01203 | -69.69398 | 5471 ft | 274 kts | 141° |
| 2026-04-21 13:07 | -44.02597 | -69.67619 | 5486 ft | 271 kts | 142° |
| 2026-04-21 13:07 | -44.03988 | -69.65863 | 5496 ft | 270 kts | 142° |
| 2026-04-21 13:07 | -44.05345 | -69.64118 | 5500 ft | 269 kts | 141° |
| 2026-04-21 13:08 | -44.06715 | -69.62337 | 5494 ft | 269 kts | 141° |
| 2026-04-21 13:08 | -44.08093 | -69.60579 | 5492 ft | 269 kts | 142° |
| 2026-04-21 13:08 | -44.09478 | -69.58824 | 5545 ft | 270 kts | 142° |
| 2026-04-21 13:08 | -44.10850 | -69.57041 | 5527 ft | 271 kts | 141° |
| 2026-04-21 13:09 | -44.12228 | -69.55255 | 5490 ft | 270 kts | 142° |
| 2026-04-21 13:09 | -44.13614 | -69.53502 | 5490 ft | 269 kts | 143° |
| 2026-04-21 13:09 | -44.14977 | -69.51769 | 5497 ft | 269 kts | 142° |
| 2026-04-21 13:09 | -44.16347 | -69.49998 | 5490 ft | 268 kts | 142° |
| 2026-04-21 13:10 | -44.17719 | -69.48238 | 5468 ft | 267 kts | 142° |
| 2026-04-21 13:10 | -44.19068 | -69.46467 | 5474 ft | 266 kts | 141° |
| 2026-04-21 13:10 | -44.20413 | -69.44702 | 5458 ft | 264 kts | 142° |
| 2026-04-21 13:10 | -44.21760 | -69.42964 | 5491 ft | 264 kts | 142° |
| 2026-04-21 13:11 | -44.23112 | -69.41226 | 5531 ft | 266 kts | 142° |
| 2026-04-21 13:11 | -44.24472 | -69.39464 | 5508 ft | 268 kts | 142° |
| 2026-04-21 13:11 | -44.25831 | -69.37738 | 5478 ft | 268 kts | 143° |
| 2026-04-21 13:11 | -44.27209 | -69.35990 | 5463 ft | 268 kts | 142° |
| 2026-04-21 13:12 | -44.28567 | -69.34215 | 5470 ft | 267 kts | 141° |
| 2026-04-21 13:12 | -44.29917 | -69.32428 | 5463 ft | 267 kts | 141° |
| 2026-04-21 13:12 | -44.31270 | -69.30654 | 5463 ft | 267 kts | 142° |
| 2026-04-21 13:12 | -44.32629 | -69.28892 | 5459 ft | 266 kts | 143° |
| 2026-04-21 13:13 | -44.33998 | -69.27144 | 5344 ft | 269 kts | 143° |
| 2026-04-21 13:13 | -44.35380 | -69.25355 | 5229 ft | 272 kts | 142° |
| 2026-04-21 13:13 | -44.36745 | -69.23562 | 5111 ft | 273 kts | 142° |
| 2026-04-21 13:13 | -44.38134 | -69.21769 | 4984 ft | 271 kts | 143° |
| 2026-04-21 13:14 | -44.39508 | -69.19990 | 4881 ft | 267 kts | 142° |
| 2026-04-21 13:14 | -44.40846 | -69.18226 | 4747 ft | 263 kts | 142° |
| 2026-04-21 13:14 | -44.42173 | -69.16488 | 4644 ft | 260 kts | 142° |
| 2026-04-21 13:14 | -44.43497 | -69.14777 | 4569 ft | 258 kts | 142° |
| 2026-04-21 13:15 | -44.44789 | -69.13064 | 4504 ft | 254 kts | 140° |
| 2026-04-21 13:15 | -44.46049 | -69.11369 | 4491 ft | 249 kts | 142° |
| 2026-04-21 13:15 | -44.47321 | -69.09751 | 4479 ft | 245 kts | 143° |
| 2026-04-21 13:15 | -44.48566 | -69.08175 | 4487 ft | 244 kts | 142° |
| 2026-04-21 13:16 | -44.49812 | -69.06564 | 4491 ft | 244 kts | 141° |
| 2026-04-21 13:16 | -44.51046 | -69.04923 | 4507 ft | 247 kts | 141° |
| 2026-04-21 13:16 | -44.52301 | -69.03243 | 4493 ft | 251 kts | 141° |
| 2026-04-21 13:16 | -44.53594 | -69.01554 | 4354 ft | 258 kts | 141° |
| 2026-04-21 13:17 | -44.54922 | -68.99831 | 4203 ft | 262 kts | 140° |
| 2026-04-21 13:17 | -44.56251 | -68.98095 | 4041 ft | 261 kts | 140° |
| 2026-04-21 13:17 | -44.57551 | -68.96376 | 3896 ft | 260 kts | 139° |
| 2026-04-21 13:17 | -44.58860 | -68.94637 | 3747 ft | 259 kts | 139° |
| 2026-04-21 13:18 | -44.60165 | -68.92907 | 3617 ft | 257 kts | 139° |
| 2026-04-21 13:18 | -44.61459 | -68.91199 | 3556 ft | 254 kts | 139° |
| 2026-04-21 13:18 | -44.62736 | -68.89509 | 3523 ft | 251 kts | 139° |
| 2026-04-21 13:18 | -44.63996 | -68.87839 | 3509 ft | 248 kts | 139° |
| 2026-04-21 13:19 | -44.65253 | -68.86198 | 3504 ft | 246 kts | 139° |
| 2026-04-21 13:19 | -44.66497 | -68.84555 | 3498 ft | 245 kts | 139° |
| 2026-04-21 13:19 | -44.67738 | -68.82919 | 3509 ft | 244 kts | 139° |
| 2026-04-21 13:19 | -44.68965 | -68.81312 | 3489 ft | 244 kts | 139° |
| 2026-04-21 13:20 | -44.70201 | -68.79686 | 3485 ft | 243 kts | 139° |
| 2026-04-21 13:20 | -44.71423 | -68.78055 | 3490 ft | 242 kts | 139° |
| 2026-04-21 13:20 | -44.72643 | -68.76433 | 3494 ft | 241 kts | 140° |
| 2026-04-21 13:20 | -44.73867 | -68.74823 | 3488 ft | 241 kts | 139° |
| 2026-04-21 13:21 | -44.75090 | -68.73210 | 3505 ft | 242 kts | 139° |
| 2026-04-21 13:21 | -44.76314 | -68.71588 | 3497 ft | 242 kts | 139° |
| 2026-04-21 13:21 | -44.77531 | -68.69956 | 3495 ft | 241 kts | 139° |
| 2026-04-21 13:21 | -44.78735 | -68.68358 | 3499 ft | 241 kts | 140° |
| 2026-04-21 13:22 | -44.79953 | -68.66739 | 3497 ft | 241 kts | 140° |
| 2026-04-21 13:22 | -44.81177 | -68.65119 | 3500 ft | 242 kts | 140° |
| 2026-04-21 13:22 | -44.82400 | -68.63490 | 3498 ft | 242 kts | 139° |
| 2026-04-21 13:22 | -44.83616 | -68.61847 | 3492 ft | 242 kts | 140° |
| 2026-04-21 13:23 | -44.84843 | -68.60227 | 3498 ft | 242 kts | 140° |
| 2026-04-21 13:23 | -44.86079 | -68.58607 | 3499 ft | 243 kts | 140° |
| 2026-04-21 13:23 | -44.87312 | -68.56971 | 3500 ft | 245 kts | 139° |
| 2026-04-21 13:23 | -44.88554 | -68.55289 | 3506 ft | 249 kts | 139° |
| 2026-04-21 13:24 | -44.89816 | -68.53591 | 3498 ft | 252 kts | 140° |
| 2026-04-21 13:24 | -44.91076 | -68.51913 | 3495 ft | 253 kts | 140° |
| 2026-04-21 13:24 | -44.92363 | -68.50213 | 3500 ft | 254 kts | 140° |
| 2026-04-21 13:24 | -44.93642 | -68.48488 | 3508 ft | 255 kts | 139° |
| 2026-04-21 13:25 | -44.94920 | -68.46752 | 3495 ft | 254 kts | 139° |
| 2026-04-21 13:25 | -44.96200 | -68.45038 | 3498 ft | 254 kts | 140° |
| 2026-04-21 13:25 | -44.97497 | -68.43342 | 3511 ft | 255 kts | 140° |
| 2026-04-21 13:25 | -44.98790 | -68.41626 | 3500 ft | 256 kts | 140° |
| 2026-04-21 13:26 | -45.00093 | -68.39905 | 3506 ft | 257 kts | 140° |
| 2026-04-21 13:26 | -45.01380 | -68.38192 | 3490 ft | 258 kts | 139° |
| 2026-04-21 13:26 | -45.02677 | -68.36455 | 3457 ft | 256 kts | 140° |
| 2026-04-21 13:26 | -45.03971 | -68.34750 | 3471 ft | 253 kts | 140° |
| 2026-04-21 13:27 | -45.05238 | -68.33034 | 3481 ft | 252 kts | 140° |
| 2026-04-21 13:27 | -45.06508 | -68.31330 | 3505 ft | 252 kts | 140° |
| 2026-04-21 13:27 | -45.07774 | -68.29615 | 3496 ft | 252 kts | 140° |
| 2026-04-21 13:27 | -45.08841 | -68.27648 | 3505 ft | 257 kts | 117° |
| 2026-04-21 13:28 | -45.09492 | -68.25282 | 3514 ft | 259 kts | 110° |
| 2026-04-21 13:28 | -45.10008 | -68.22828 | 3510 ft | 261 kts | 106° |
| 2026-04-21 13:28 | -45.10442 | -68.20372 | 3503 ft | 261 kts | 104° |
| 2026-04-21 13:28 | -45.10795 | -68.17844 | 3511 ft | 263 kts | 99° |
| 2026-04-21 13:29 | -45.10988 | -68.15272 | 3506 ft | 263 kts | 95° |
| 2026-04-21 13:29 | -45.11143 | -68.12691 | 3505 ft | 263 kts | 95° |
| 2026-04-21 13:29 | -45.11326 | -68.10117 | 3505 ft | 263 kts | 97° |
| 2026-04-21 13:29 | -45.11526 | -68.07537 | 3500 ft | 263 kts | 97° |
| 2026-04-21 13:30 | -45.11743 | -68.04966 | 3498 ft | 263 kts | 98° |
| 2026-04-21 13:30 | -45.11962 | -68.02394 | 3499 ft | 263 kts | 97° |
| 2026-04-21 13:30 | -45.12169 | -67.99821 | 3497 ft | 264 kts | 97° |
| 2026-04-21 13:30 | -45.12364 | -67.97271 | 3494 ft | 264 kts | 97° |
| 2026-04-21 13:31 | -45.12566 | -67.94685 | 3498 ft | 265 kts | 97° |
| 2026-04-21 13:31 | -45.12779 | -67.92100 | 3504 ft | 264 kts | 97° |
| 2026-04-21 13:31 | -45.12982 | -67.89511 | 3465 ft | 264 kts | 97° |
| 2026-04-21 13:31 | -45.13489 | -67.87048 | 3475 ft | 260 kts | 121° |
| 2026-04-21 13:32 | -45.14418 | -67.84866 | 3477 ft | 257 kts | 128° |
| 2026-04-21 13:32 | -45.15479 | -67.82839 | 3498 ft | 256 kts | 132° |
| 2026-04-21 13:32 | -45.16589 | -67.80874 | 3495 ft | 255 kts | 133° |
| 2026-04-21 13:32 | -45.17728 | -67.78996 | 3491 ft | 254 kts | 137° |
| 2026-04-21 13:33 | -45.18977 | -67.77240 | 3489 ft | 252 kts | 141° |
| 2026-04-21 13:33 | -45.20269 | -67.75577 | 3496 ft | 250 kts | 142° |
| 2026-04-21 13:33 | -45.21555 | -67.73905 | 3507 ft | 251 kts | 142° |
| 2026-04-21 13:33 | -45.22834 | -67.72203 | 3508 ft | 253 kts | 142° |
| 2026-04-21 13:34 | -45.24105 | -67.70470 | 3506 ft | 254 kts | 141° |
| 2026-04-21 13:34 | -45.25377 | -67.68722 | 3492 ft | 255 kts | 141° |
| 2026-04-21 13:34 | -45.26656 | -67.66971 | 3495 ft | 256 kts | 140° |
| 2026-04-21 13:34 | -45.27939 | -67.65225 | 3499 ft | 255 kts | 141° |
| 2026-04-21 13:35 | -45.29208 | -67.63511 | 3481 ft | 255 kts | 141° |
| 2026-04-21 13:35 | -45.30491 | -67.61769 | 3483 ft | 255 kts | 141° |
| 2026-04-21 13:35 | -45.31765 | -67.60018 | 3489 ft | 254 kts | 141° |
| 2026-04-21 13:35 | -45.33037 | -67.58270 | 3495 ft | 255 kts | 141° |
| 2026-04-21 13:36 | -45.34317 | -67.56524 | 3492 ft | 256 kts | 141° |
| 2026-04-21 13:36 | -45.35617 | -67.54807 | 3482 ft | 255 kts | 143° |
| 2026-04-21 13:36 | -45.36910 | -67.53067 | 3486 ft | 257 kts | 140° |
| 2026-04-21 13:36 | -45.38143 | -67.51220 | 3488 ft | 258 kts | 137° |
| 2026-04-21 13:37 | -45.39339 | -67.49363 | 3440 ft | 257 kts | 137° |
| 2026-04-21 13:37 | -45.40551 | -67.47497 | 3494 ft | 257 kts | 137° |
| 2026-04-21 13:37 | -45.41776 | -67.45643 | 3473 ft | 257 kts | 139° |
| 2026-04-21 13:37 | -45.43014 | -67.43823 | 3485 ft | 255 kts | 139° |
| 2026-04-21 13:38 | -45.44243 | -67.41999 | 3506 ft | 256 kts | 139° |
| 2026-04-21 13:38 | -45.45455 | -67.40139 | 3485 ft | 256 kts | 137° |
| 2026-04-21 13:38 | -45.46666 | -67.38277 | 3492 ft | 256 kts | 139° |
| 2026-04-21 13:38 | -45.47949 | -67.36523 | 3483 ft | 256 kts | 141° |
| 2026-04-21 13:39 | -45.49263 | -67.34820 | 3461 ft | 256 kts | 143° |
| 2026-04-21 13:39 | -45.50572 | -67.33158 | 3227 ft | 253 kts | 144° |
| 2026-04-21 13:39 | -45.51866 | -67.31495 | 3009 ft | 249 kts | 142° |
| 2026-04-21 13:39 | -45.53115 | -67.29788 | 2808 ft | 248 kts | 141° |
| 2026-04-21 13:40 | -45.54349 | -67.28077 | 2645 ft | 246 kts | 141° |
| 2026-04-21 13:40 | -45.55598 | -67.26418 | 2571 ft | 245 kts | 142° |
| 2026-04-21 13:40 | -45.56831 | -67.24756 | 2514 ft | 243 kts | 139° |
| 2026-04-21 13:40 | -45.57986 | -67.23008 | 2494 ft | 241 kts | 136° |
| 2026-04-21 13:41 | -45.59080 | -67.21207 | 2490 ft | 239 kts | 135° |
| 2026-04-21 13:41 | -45.60166 | -67.19403 | 2397 ft | 241 kts | 135° |
| 2026-04-21 13:41 | -45.61264 | -67.17611 | 2222 ft | 244 kts | 135° |
| 2026-04-21 13:41 | -45.62414 | -67.15811 | 2049 ft | 246 kts | 136° |
| 2026-04-21 13:42 | -45.63581 | -67.14022 | 1876 ft | 245 kts | 142° |
| 2026-04-21 13:42 | -45.65065 | -67.13065 | 1686 ft | 230 kts | 181° |
| 2026-04-21 13:42 | -45.66501 | -67.13678 | 1587 ft | 211 kts | 225° |
| 2026-04-21 13:42 | -45.67235 | -67.15389 | 1535 ft | 201 kts | 251° |
| 2026-04-21 13:43 | -45.67765 | -67.17216 | 1514 ft | 198 kts | 251° |
| 2026-04-21 13:43 | -45.68301 | -67.19021 | 1517 ft | 197 kts | 250° |
| 2026-04-21 13:43 | -45.68838 | -67.20793 | 1501 ft | 197 kts | 251° |
| 2026-04-21 13:43 | -45.69391 | -67.22581 | 1485 ft | 196 kts | 250° |
| 2026-04-21 13:44 | -45.69950 | -67.24355 | 1480 ft | 195 kts | 248° |
| 2026-04-21 13:44 | -45.70569 | -67.26073 | 1483 ft | 194 kts | 245° |
| 2026-04-21 13:44 | -45.71226 | -67.27763 | 1487 ft | 194 kts | 245° |
| 2026-04-21 13:44 | -45.71903 | -67.29427 | 1480 ft | 193 kts | 245° |
| 2026-04-21 13:45 | -45.72568 | -67.31123 | 1345 ft | 198 kts | 245° |
| 2026-04-21 13:45 | -45.73241 | -67.32859 | 1208 ft | 202 kts | 245° |
| 2026-04-21 13:45 | -45.73919 | -67.34629 | 1088 ft | 203 kts | 245° |
| 2026-04-21 13:45 | -45.74592 | -67.36367 | 990 ft | 203 kts | 245° |
| 2026-04-21 13:46 | -45.75296 | -67.38188 | 733 ft | 212 kts | 245° |
| 2026-04-21 13:46 | -45.76264 | -67.39761 | 502 ft | 213 kts | 218° |
| 2026-04-21 13:46 | -45.77196 | -67.40920 | 837 ft | 144 kts | 239° |
| 2026-04-21 13:46 | -45.77756 | -67.42091 | 548 ft | 136 kts | 251° |
| 2026-04-21 13:47 | -45.78071 | -67.43299 | 432 ft | 128 kts | 260° |
| 2026-04-21 13:47 | -45.78269 | -67.44565 | 160 ft | 126 kts | 264° |
| 2026-04-21 13:47 | -45.78389 | -67.45590 | 120 ft | 89 kts | 264° |
| 2026-04-21 13:47 | -45.78480 | -67.46305 | 132 ft | 51 kts | 262° |
| 2026-04-21 13:48 | -45.78531 | -67.46630 | 135 ft | 24 kts | 259° |
| 2026-04-21 13:48 | -45.78587 | -67.46802 | 137 ft | 17 kts | 188° |
| 2026-04-21 13:48 | -45.78726 | -67.46807 | 138 ft | 23 kts | 181° |
| 2026-04-21 13:48 | -45.78891 | -67.46795 | 138 ft | 24 kts | 179° |
| 2026-04-21 13:49 | -45.78953 | -67.46823 | 138 ft | 0 kts | 240° |